createdAt,value
2022-10-22T00:00:37.189Z,14.80
2022-10-22T00:03:03.934Z,14.80
2022-10-22T00:05:30.644Z,14.70
2022-10-22T00:07:57.443Z,14.80
2022-10-22T00:10:24.099Z,14.70
2022-10-22T00:12:50.867Z,14.70
2022-10-22T00:15:17.701Z,14.70
2022-10-22T00:17:44.450Z,14.70
2022-10-22T00:20:11.551Z,14.70
2022-10-22T00:22:38.211Z,14.80
2022-10-22T00:25:05.118Z,14.80
2022-10-22T00:27:31.852Z,14.80
2022-10-22T00:29:58.508Z,14.80
2022-10-22T00:32:25.162Z,14.80
2022-10-22T00:34:51.913Z,14.80
2022-10-22T00:37:18.599Z,14.80
2022-10-22T00:39:45.245Z,14.90
2022-10-22T00:42:24.145Z,14.80
2022-10-22T00:45:09.697Z,14.90
2022-10-22T00:47:41.587Z,14.90
2022-10-22T00:50:11.988Z,14.90
2022-10-22T00:52:38.984Z,14.90
2022-10-22T00:55:06.072Z,14.90
2022-10-22T00:57:32.772Z,14.90
2022-10-22T01:00:00.291Z,14.90
2022-10-22T01:02:27.652Z,14.90
2022-10-22T01:04:54.349Z,14.90
2022-10-22T01:07:22.703Z,14.90
2022-10-22T01:10:17.504Z,14.90
2022-10-22T01:13:15.652Z,14.90
2022-10-22T01:15:48.441Z,14.90
2022-10-22T01:18:32.745Z,14.90
2022-10-22T01:21:21.034Z,14.90
2022-10-22T01:24:08.821Z,14.80
2022-10-22T01:26:50.502Z,14.80
2022-10-22T01:29:29.553Z,14.80
2022-10-22T01:31:59.984Z,14.70
2022-10-22T01:34:26.671Z,14.70
2022-10-22T01:36:53.414Z,14.70
2022-10-22T01:39:20.127Z,14.60
2022-10-22T01:41:46.913Z,14.60
2022-10-22T01:44:30.617Z,14.60
2022-10-22T01:47:22.171Z,14.60
2022-10-22T01:50:13.611Z,14.60
2022-10-22T01:53:06.705Z,14.70
2022-10-22T01:55:48.942Z,14.60
2022-10-22T01:58:30.231Z,14.70
2022-10-22T02:01:00.939Z,14.70
2022-10-22T02:03:31.224Z,14.70
2022-10-22T02:06:01.679Z,14.70
2022-10-22T02:08:31.115Z,14.70
2022-10-22T02:10:57.993Z,14.70
2022-10-22T02:13:33.279Z,14.70
2022-10-22T02:15:59.993Z,14.70
2022-10-22T02:18:28.541Z,14.70
2022-10-22T02:20:56.069Z,14.70
2022-10-22T02:23:22.814Z,14.70
2022-10-22T02:25:52.117Z,14.70
2022-10-22T02:28:21.784Z,14.80
2022-10-22T02:30:52.027Z,14.80
2022-10-22T02:33:21.506Z,14.80
2022-10-22T02:35:48.157Z,14.70
2022-10-22T02:38:14.932Z,14.70
2022-10-22T02:40:41.697Z,14.70
2022-10-22T02:43:08.468Z,14.70
2022-10-22T02:45:35.245Z,14.70
2022-10-22T02:48:02.104Z,14.70
2022-10-22T02:50:28.809Z,14.70
2022-10-22T02:52:55.506Z,14.70
2022-10-22T02:55:22.209Z,14.70
2022-10-22T02:57:49.192Z,14.70
2022-10-22T03:00:16.159Z,14.70
2022-10-22T03:02:42.871Z,14.70
2022-10-22T03:05:09.834Z,14.70
2022-10-22T03:07:36.499Z,14.80
2022-10-22T03:10:03.816Z,14.80
2022-10-22T03:12:30.552Z,14.80
2022-10-22T03:14:57.264Z,14.80
2022-10-22T03:17:24.446Z,14.80
2022-10-22T03:19:51.120Z,14.70
2022-10-22T03:22:35.799Z,14.70
2022-10-22T03:25:07.779Z,14.60
2022-10-22T03:27:35.078Z,14.50
2022-10-22T03:30:01.776Z,14.40
2022-10-22T03:32:28.501Z,14.40
2022-10-22T03:34:55.212Z,14.40
2022-10-22T03:37:21.968Z,14.40
2022-10-22T03:39:48.656Z,14.40
2022-10-22T03:42:16.228Z,14.40
2022-10-22T03:44:42.875Z,14.40
2022-10-22T03:47:10.420Z,14.40
2022-10-22T03:49:37.091Z,14.50
2022-10-22T03:52:08.208Z,14.50
2022-10-22T03:54:36.069Z,14.50
2022-10-22T03:57:03.704Z,14.50
2022-10-22T03:59:37.672Z,14.50
2022-10-22T04:02:04.482Z,14.50
2022-10-22T04:04:31.306Z,14.50
2022-10-22T04:06:57.963Z,14.40
2022-10-22T04:09:24.690Z,14.40
2022-10-22T04:11:51.391Z,14.40
2022-10-22T04:14:18.223Z,14.30
2022-10-22T04:16:44.921Z,14.30
2022-10-22T04:19:11.593Z,14.20
2022-10-22T04:21:38.267Z,14.20
2022-10-22T04:24:05.034Z,14.20
2022-10-22T04:26:31.700Z,14.20
2022-10-22T04:28:58.483Z,14.20
2022-10-22T04:31:25.549Z,14.20
2022-10-22T04:33:57.464Z,14.10
2022-10-22T04:36:24.566Z,14.10
2022-10-22T04:38:58.780Z,14.10
2022-10-22T04:41:27.500Z,14.10
2022-10-22T04:43:55.066Z,14.00
2022-10-22T04:46:22.070Z,14.00
2022-10-22T04:48:48.823Z,14.00
2022-10-22T04:51:17.306Z,14.00
2022-10-22T04:53:44.048Z,13.90
2022-10-22T04:56:11.221Z,13.90
2022-10-22T04:58:38.188Z,13.90
2022-10-22T05:01:41.684Z,13.80
2022-10-22T05:04:11.997Z,13.80
2022-10-22T05:06:38.735Z,13.80
2022-10-22T05:09:07.371Z,13.80
2022-10-22T05:11:38.330Z,13.70
2022-10-22T05:14:06.008Z,13.70
2022-10-22T05:16:32.845Z,13.70
2022-10-22T05:19:00.618Z,13.70
2022-10-22T05:21:27.616Z,13.70
2022-10-22T05:23:54.880Z,13.70
2022-10-22T05:26:21.978Z,13.70
2022-10-22T05:28:49.261Z,13.60
2022-10-22T05:31:15.999Z,13.60
2022-10-22T05:33:42.910Z,13.60
2022-10-22T05:36:13.703Z,13.60
2022-10-22T05:38:40.354Z,13.50
2022-10-22T05:41:09.742Z,13.50
2022-10-22T05:43:36.722Z,13.50
2022-10-22T05:46:11.343Z,13.50
2022-10-22T05:48:38.488Z,13.40
2022-10-22T05:51:06.359Z,13.40
2022-10-22T05:53:33.836Z,13.40
2022-10-22T05:56:05.614Z,13.30
2022-10-22T05:58:32.386Z,13.30
2022-10-22T06:01:29.446Z,13.30
2022-10-22T06:03:57.343Z,13.30
2022-10-22T06:06:43.494Z,13.30
2022-10-22T06:09:22.397Z,13.30
2022-10-22T06:11:49.236Z,13.30
2022-10-22T06:14:16.119Z,13.20
2022-10-22T06:16:43.258Z,13.20
2022-10-22T06:19:13.668Z,13.20
2022-10-22T06:21:40.326Z,13.20
2022-10-22T06:24:07.456Z,13.20
2022-10-22T06:26:34.165Z,13.20
2022-10-22T06:29:00.992Z,13.20
2022-10-22T06:31:27.902Z,13.10
2022-10-22T06:33:56.180Z,13.10
2022-10-22T06:36:23.460Z,13.10
2022-10-22T06:38:54.000Z,13.10
2022-10-22T06:41:23.036Z,13.10
2022-10-22T06:43:53.507Z,13.10
2022-10-22T06:46:21.095Z,13.10
2022-10-22T06:48:52.524Z,13.10
2022-10-22T06:51:19.315Z,13.10
2022-10-22T06:53:46.173Z,13.10
2022-10-22T06:56:14.930Z,13.10
2022-10-22T06:58:41.799Z,13.20
2022-10-22T07:01:12.287Z,13.20
2022-10-22T07:03:39.494Z,13.20
2022-10-22T07:06:08.259Z,13.20
2022-10-22T07:08:35.544Z,13.30
2022-10-22T07:11:10.079Z,13.30
2022-10-22T07:13:36.852Z,13.50
2022-10-22T07:16:04.381Z,13.30
2022-10-22T07:18:31.265Z,13.40
2022-10-22T07:20:58.205Z,13.40
2022-10-22T07:23:25.277Z,13.40
2022-10-22T07:25:52.397Z,13.50
2022-10-22T07:28:22.522Z,13.50
2022-10-22T07:30:49.385Z,13.50
2022-10-22T07:33:16.183Z,13.60
2022-10-22T07:35:43.120Z,13.70
2022-10-22T07:38:09.886Z,13.70
2022-10-22T07:40:36.739Z,13.80
2022-10-22T07:43:03.756Z,13.80
2022-10-22T07:45:30.578Z,13.80
2022-10-22T07:47:57.328Z,13.90
2022-10-22T07:50:24.028Z,13.80
2022-10-22T07:52:51.556Z,13.80
2022-10-22T07:55:19.664Z,13.80
2022-10-22T07:57:46.465Z,13.90
2022-10-22T08:00:16.223Z,13.80
2022-10-22T08:02:43.293Z,13.90
2022-10-22T08:05:10.418Z,13.90
2022-10-22T08:07:37.111Z,13.80
2022-10-22T08:10:04.008Z,13.90
2022-10-22T08:12:30.938Z,13.90
2022-10-22T08:14:57.694Z,13.90
2022-10-22T08:17:24.380Z,13.90
2022-10-22T08:19:51.101Z,13.90
2022-10-22T08:22:17.860Z,13.90
2022-10-22T08:24:44.625Z,13.90
2022-10-22T08:27:11.410Z,13.90
2022-10-22T08:29:38.211Z,14.00
2022-10-22T08:32:05.188Z,14.00
2022-10-22T08:34:32.001Z,14.00
2022-10-22T08:36:58.702Z,14.00
2022-10-22T08:39:25.630Z,14.10
2022-10-22T08:42:14.340Z,14.10
2022-10-22T08:45:08.963Z,14.10
2022-10-22T08:47:44.622Z,14.10
2022-10-22T08:50:12.861Z,14.20
2022-10-22T08:52:40.559Z,14.20
2022-10-22T08:55:12.562Z,14.20
2022-10-22T08:57:57.335Z,14.20
2022-10-22T09:00:50.473Z,14.30
2022-10-22T09:03:23.507Z,14.40
2022-10-22T09:06:26.295Z,14.40
2022-10-22T09:08:53.273Z,14.40
2022-10-22T09:11:24.803Z,14.50
2022-10-22T09:13:51.569Z,14.60
2022-10-22T09:16:21.150Z,14.70
2022-10-22T09:19:06.242Z,14.80
2022-10-22T09:21:51.700Z,14.90
2022-10-22T09:24:38.694Z,15.00
2022-10-22T09:27:11.669Z,15.00
2022-10-22T09:29:38.547Z,15.10
2022-10-22T09:32:05.514Z,15.20
2022-10-22T09:34:32.561Z,15.20
2022-10-22T09:37:04.753Z,15.30
2022-10-22T09:39:43.804Z,15.40
2022-10-22T09:42:10.925Z,15.50
2022-10-22T09:44:38.084Z,15.50
2022-10-22T09:47:37.335Z,15.60
2022-10-22T09:50:31.214Z,15.60
2022-10-22T09:53:01.840Z,15.70
2022-10-22T09:55:28.647Z,15.80
2022-10-22T09:57:56.456Z,15.80
2022-10-22T10:00:25.122Z,15.90
2022-10-22T10:02:57.211Z,15.90
2022-10-22T10:05:34.724Z,15.90
2022-10-22T10:08:15.286Z,16.00
2022-10-22T10:10:52.259Z,16.10
2022-10-22T10:13:35.783Z,16.10
2022-10-22T10:16:14.425Z,16.20
2022-10-22T10:18:55.008Z,16.20
2022-10-22T10:21:38.365Z,16.30
2022-10-22T10:24:16.212Z,16.40
2022-10-22T10:26:53.830Z,16.40
2022-10-22T10:30:03.381Z,16.40
2022-10-22T10:32:55.215Z,16.40
2022-10-22T10:35:55.219Z,16.50
2022-10-22T10:38:29.680Z,16.60
2022-10-22T10:41:38.938Z,16.70
2022-10-22T10:44:30.511Z,16.60
2022-10-22T10:47:22.547Z,16.70
2022-10-22T10:49:49.350Z,16.80
2022-10-22T10:52:36.579Z,16.80
2022-10-22T10:55:19.261Z,16.90
2022-10-22T10:58:04.010Z,16.90
2022-10-22T11:00:32.845Z,16.80
2022-10-22T11:03:24.617Z,16.90
2022-10-22T11:06:04.320Z,17.00
2022-10-22T11:08:33.101Z,17.00
2022-10-22T11:11:07.812Z,17.00
2022-10-22T11:13:49.428Z,17.10
2022-10-22T11:16:23.709Z,17.10
2022-10-22T11:18:55.344Z,17.20
2022-10-22T11:21:27.369Z,17.20
2022-10-22T11:24:08.008Z,17.30
2022-10-22T11:26:49.276Z,17.30
2022-10-22T11:29:21.796Z,17.40
2022-10-22T11:31:49.235Z,17.40
2022-10-22T11:34:33.115Z,17.50
2022-10-22T11:37:00.753Z,17.40
2022-10-22T11:39:31.203Z,17.50
2022-10-22T11:42:04.124Z,17.60
2022-10-22T11:44:32.543Z,17.60
2022-10-22T11:47:10.080Z,17.70
2022-10-22T11:50:16.738Z,17.80
2022-10-22T11:53:27.691Z,17.70
2022-10-22T11:55:59.972Z,17.80
2022-10-22T11:58:28.060Z,17.80
2022-10-22T12:00:56.036Z,17.90
2022-10-22T12:03:28.443Z,18.00
2022-10-22T12:06:13.268Z,18.10
2022-10-22T12:09:01.225Z,18.10
2022-10-22T12:11:39.248Z,18.10
2022-10-22T12:14:32.536Z,18.10
2022-10-22T12:17:02.964Z,18.10
2022-10-22T12:19:31.967Z,18.10
2022-10-22T12:22:01.242Z,18.20
2022-10-22T12:24:32.936Z,18.20
2022-10-22T12:26:59.700Z,18.20
2022-10-22T12:29:26.801Z,18.20
2022-10-22T12:31:54.920Z,18.20
2022-10-22T12:34:23.289Z,18.20
2022-10-22T12:36:51.479Z,18.40
2022-10-22T12:39:19.940Z,18.50
2022-10-22T12:41:46.771Z,18.50
2022-10-22T12:44:15.050Z,18.40
2022-10-22T12:46:42.117Z,18.40
2022-10-22T12:49:14.241Z,18.30
2022-10-22T12:51:40.900Z,18.30
2022-10-22T12:54:09.513Z,18.30
2022-10-22T12:56:36.518Z,18.30
2022-10-22T12:59:27.140Z,18.20
2022-10-22T13:01:54.118Z,18.30
2022-10-22T13:04:22.952Z,18.20
2022-10-22T13:07:03.716Z,18.10
2022-10-22T13:09:39.225Z,18.00
2022-10-22T13:12:07.132Z,17.90
2022-10-22T13:14:35.424Z,17.90
2022-10-22T13:17:05.184Z,17.90
2022-10-22T13:19:45.205Z,17.90
2022-10-22T13:22:36.283Z,17.90
2022-10-22T13:25:14.852Z,17.80
2022-10-22T13:28:18.994Z,17.80
2022-10-22T13:30:53.498Z,17.70
2022-10-22T13:33:29.600Z,17.70
2022-10-22T13:35:56.578Z,17.70
2022-10-22T13:38:24.883Z,17.60
2022-10-22T13:40:51.683Z,17.60
2022-10-22T13:43:18.785Z,17.60
2022-10-22T13:45:46.330Z,17.70
2022-10-22T13:48:16.878Z,17.70
2022-10-22T13:50:43.734Z,17.80
2022-10-22T13:53:18.883Z,17.90
2022-10-22T13:55:46.088Z,18.00
2022-10-22T13:58:20.148Z,18.20
2022-10-22T14:00:59.420Z,18.30
2022-10-22T14:03:28.580Z,18.30
2022-10-22T14:05:55.541Z,18.40
2022-10-22T14:08:23.473Z,18.40
2022-10-22T14:10:50.689Z,18.40
2022-10-22T14:13:19.681Z,18.40
2022-10-22T14:15:47.891Z,18.30
2022-10-22T14:18:26.331Z,18.30
2022-10-22T14:21:01.075Z,18.30
2022-10-22T14:23:29.184Z,18.20
2022-10-22T14:25:56.221Z,18.10
2022-10-22T14:28:23.116Z,18.00
2022-10-22T14:30:50.094Z,18.00
2022-10-22T14:33:21.071Z,18.00
2022-10-22T14:35:48.728Z,17.90
2022-10-22T14:38:15.857Z,17.90
2022-10-22T14:40:42.999Z,17.80
2022-10-22T14:43:15.062Z,17.80
2022-10-22T14:45:51.614Z,17.70
2022-10-22T14:50:46.205Z,17.70
2022-10-22T14:53:13.711Z,17.70
2022-10-22T14:55:41.052Z,17.70
2022-10-22T14:58:07.884Z,17.70
2022-10-22T15:00:36.849Z,17.70
2022-10-22T15:03:04.590Z,17.70
2022-10-22T15:05:36.999Z,17.70
2022-10-22T15:08:12.046Z,17.80
2022-10-22T15:10:40.796Z,17.80
2022-10-22T15:13:08.284Z,17.80
2022-10-22T15:15:39.510Z,17.90
2022-10-22T15:18:06.819Z,18.00
2022-10-22T15:20:33.619Z,18.00
2022-10-22T15:23:00.691Z,18.00
2022-10-22T15:25:28.630Z,17.90
2022-10-22T15:27:59.678Z,17.80
2022-10-22T15:30:31.481Z,17.80
2022-10-22T15:32:58.279Z,17.70
2022-10-22T15:35:27.733Z,17.60
2022-10-22T15:37:54.436Z,17.60
2022-10-22T15:40:21.160Z,17.50
2022-10-22T15:42:47.930Z,17.50
2022-10-22T15:45:15.789Z,17.50
2022-10-22T15:47:47.428Z,17.50
2022-10-22T15:50:14.901Z,17.40
2022-10-22T15:52:41.600Z,17.40
2022-10-22T15:55:10.479Z,17.30
2022-10-22T15:57:37.966Z,17.20
2022-10-22T16:00:09.550Z,17.20
2022-10-22T16:02:36.256Z,17.20
2022-10-22T16:05:03.090Z,17.10
2022-10-22T16:07:30.104Z,17.10
2022-10-22T16:10:01.572Z,17.10
2022-10-22T16:12:28.337Z,17.00
2022-10-22T16:14:55.020Z,17.00
2022-10-22T16:17:21.747Z,17.00
2022-10-22T16:19:48.559Z,16.90
2022-10-22T16:22:15.736Z,16.90
2022-10-22T16:24:42.466Z,16.90
2022-10-22T16:27:09.260Z,16.90
2022-10-22T16:29:37.922Z,16.80
2022-10-22T16:32:04.833Z,16.80
2022-10-22T16:34:31.530Z,16.70
2022-10-22T16:36:58.228Z,16.70
2022-10-22T16:39:25.094Z,16.70
2022-10-22T16:41:51.916Z,16.60
2022-10-22T16:44:18.785Z,16.60
2022-10-22T16:46:45.427Z,16.50
2022-10-22T16:49:12.101Z,16.50
2022-10-22T16:51:39.344Z,16.50
2022-10-22T16:54:08.416Z,16.50
2022-10-22T16:56:38.168Z,16.40
2022-10-22T16:59:04.908Z,16.40
2022-10-22T17:01:31.694Z,16.40
2022-10-22T17:04:01.377Z,16.40
2022-10-22T17:06:28.064Z,16.30
2022-10-22T17:08:54.820Z,16.30
2022-10-22T17:11:23.429Z,16.20
2022-10-22T17:13:52.571Z,16.20
2022-10-22T17:16:20.585Z,16.20
2022-10-22T17:18:47.442Z,16.20
2022-10-22T17:21:14.457Z,16.20
2022-10-22T17:23:42.518Z,16.20
2022-10-22T17:26:13.092Z,16.10
2022-10-22T17:28:39.815Z,16.10
2022-10-22T17:31:27.860Z,16.10
2022-10-22T17:33:55.500Z,16.00
2022-10-22T17:36:22.857Z,16.00
2022-10-22T17:38:51.820Z,16.00
2022-10-22T17:41:23.556Z,16.00
2022-10-22T17:43:50.333Z,15.90
2022-10-22T17:46:22.101Z,15.90
2022-10-22T17:48:52.665Z,15.90
2022-10-22T17:51:19.723Z,15.90
2022-10-22T17:53:46.705Z,15.90
2022-10-22T17:56:17.803Z,15.80
2022-10-22T17:58:44.526Z,15.80
2022-10-22T18:01:22.662Z,15.80
2022-10-22T18:03:49.491Z,15.80
2022-10-22T18:06:16.265Z,15.70
2022-10-22T18:08:43.192Z,15.70
2022-10-22T18:11:11.303Z,15.70
2022-10-22T18:13:38.198Z,15.70
2022-10-22T18:16:05.251Z,15.70
2022-10-22T18:18:32.060Z,15.70
2022-10-22T18:21:00.500Z,15.60
2022-10-22T18:23:27.456Z,15.60
2022-10-22T18:25:54.192Z,15.60
2022-10-22T18:28:20.911Z,15.60
2022-10-22T18:30:47.837Z,15.50
2022-10-22T18:33:15.505Z,15.50
2022-10-22T18:35:42.280Z,15.50
2022-10-22T18:38:09.529Z,15.50
2022-10-22T18:40:36.693Z,15.50
2022-10-22T18:43:03.605Z,15.50
2022-10-22T18:45:30.341Z,15.50
2022-10-22T18:47:58.764Z,15.60
2022-10-22T18:50:25.480Z,15.50
2022-10-22T18:52:52.482Z,15.50
2022-10-22T18:55:19.166Z,15.50
2022-10-22T18:57:45.881Z,15.60
2022-10-22T19:00:13.742Z,15.60
2022-10-22T19:02:40.796Z,15.60
2022-10-22T19:05:08.320Z,15.60
2022-10-22T19:07:36.655Z,15.60
2022-10-22T19:10:03.839Z,15.60
2022-10-22T19:12:30.596Z,15.60
2022-10-22T19:14:57.305Z,15.60
2022-10-22T19:17:24.185Z,15.60
2022-10-22T19:19:50.839Z,15.60
2022-10-22T19:22:17.516Z,15.60
2022-10-22T19:24:44.315Z,15.60
2022-10-22T19:27:11.098Z,15.60
2022-10-22T19:29:40.554Z,15.60
2022-10-22T19:34:35.051Z,15.50
2022-10-22T19:37:01.867Z,15.50
2022-10-22T19:39:28.536Z,15.50
2022-10-22T19:41:55.346Z,15.50
2022-10-22T19:44:22.118Z,15.40
2022-10-22T19:46:48.913Z,15.40
2022-10-22T19:49:18.912Z,15.40
2022-10-22T19:51:48.740Z,15.40
2022-10-22T19:54:18.497Z,15.30
2022-10-22T19:56:45.550Z,15.30
2022-10-22T19:59:12.191Z,15.30
2022-10-22T20:01:38.897Z,15.30
2022-10-22T20:04:05.754Z,15.30
2022-10-22T20:06:32.440Z,15.30
2022-10-22T20:08:59.374Z,15.30
2022-10-22T20:11:28.039Z,15.30
2022-10-22T20:13:55.076Z,15.30
2022-10-22T20:16:23.147Z,15.20
2022-10-22T20:18:50.753Z,15.20
2022-10-22T20:21:19.195Z,15.10
2022-10-22T20:23:46.162Z,15.20
2022-10-22T20:26:13.416Z,15.10
2022-10-22T20:28:40.205Z,15.20
2022-10-22T20:31:09.971Z,15.20
2022-10-22T20:33:36.770Z,15.30
2022-10-22T20:36:16.519Z,15.30
2022-10-22T20:38:43.419Z,15.30
2022-10-22T20:41:15.466Z,15.30
2022-10-22T20:43:47.133Z,15.40
2022-10-22T20:46:27.894Z,15.40
2022-10-22T20:49:15.388Z,15.40
2022-10-22T20:51:42.154Z,15.40
2022-10-22T20:54:08.951Z,15.40
2022-10-22T20:56:36.737Z,15.40
2022-10-22T20:59:08.176Z,15.40
2022-10-22T21:01:43.520Z,15.40
2022-10-22T21:04:10.640Z,15.40
2022-10-22T21:06:41.449Z,15.40
2022-10-22T21:09:09.031Z,15.40
2022-10-22T21:11:36.414Z,15.40
2022-10-22T21:14:03.989Z,15.40
2022-10-22T21:16:30.821Z,15.40
2022-10-22T21:18:57.571Z,15.40
2022-10-22T21:21:24.401Z,15.40
2022-10-22T21:23:51.448Z,15.40
2022-10-22T21:26:19.248Z,15.30
2022-10-22T21:28:46.173Z,15.30
2022-10-22T21:31:18.775Z,15.30
2022-10-22T21:33:45.457Z,15.40
2022-10-22T21:36:12.487Z,15.40
2022-10-22T21:38:39.305Z,15.40
2022-10-22T21:41:06.817Z,15.40
2022-10-22T21:43:33.950Z,15.40
2022-10-22T21:46:13.782Z,15.40
2022-10-22T21:48:40.630Z,15.40
2022-10-22T21:51:12.427Z,15.40
2022-10-22T21:53:39.249Z,15.40
2022-10-22T21:56:06.642Z,15.40
2022-10-22T21:58:36.236Z,15.30
2022-10-22T22:01:03.356Z,15.30
2022-10-22T22:03:30.405Z,15.30
2022-10-22T22:05:58.868Z,15.30
2022-10-22T22:08:25.761Z,15.30
2022-10-22T22:10:53.631Z,15.20
2022-10-22T22:13:24.883Z,15.20
2022-10-22T22:15:52.580Z,15.20
2022-10-22T22:18:19.824Z,15.20
2022-10-22T22:20:46.555Z,15.20
2022-10-22T22:23:13.297Z,15.20
2022-10-22T22:25:40.048Z,15.20
2022-10-22T22:28:06.753Z,15.20
2022-10-22T22:30:33.539Z,15.20
2022-10-22T22:33:00.367Z,15.20
2022-10-22T22:35:27.322Z,15.20
2022-10-22T22:37:54.188Z,15.30
2022-10-22T22:40:20.959Z,15.30
2022-10-22T22:42:47.981Z,15.30
2022-10-22T22:45:14.746Z,15.30
2022-10-22T22:47:41.742Z,15.30
2022-10-22T22:50:08.813Z,15.30
2022-10-22T22:52:35.461Z,15.30
2022-10-22T22:55:02.140Z,15.30
2022-10-22T22:57:28.780Z,15.30
2022-10-22T22:59:55.418Z,15.30
2022-10-22T23:02:22.111Z,15.30
2022-10-22T23:04:48.766Z,15.30
2022-10-22T23:07:15.410Z,15.40
2022-10-22T23:09:42.194Z,15.40
2022-10-22T23:12:08.891Z,15.40
2022-10-22T23:14:35.635Z,15.40
2022-10-22T23:17:02.429Z,15.40
2022-10-22T23:19:29.113Z,15.40
2022-10-22T23:21:56.069Z,15.40
2022-10-22T23:24:24.755Z,15.30
2022-10-22T23:26:52.199Z,15.30
2022-10-22T23:29:22.699Z,15.30
2022-10-22T23:31:49.516Z,15.30
2022-10-22T23:36:46.379Z,15.30
2022-10-22T23:39:14.912Z,15.30
2022-10-22T23:41:41.657Z,15.30
2022-10-22T23:44:08.754Z,15.20
2022-10-22T23:46:35.642Z,15.20
2022-10-22T23:49:02.411Z,15.20
2022-10-22T23:51:29.114Z,15.20
2022-10-22T23:53:57.885Z,15.20
2022-10-22T23:56:24.715Z,15.20
2022-10-22T23:58:52.036Z,15.20
